Time;durP1;ratioP1;P1;durP2;ratioP2;P2;SDS_P1;SDS_P2;PMS_P1;PMS_P2;Temp;Humidity;BMP_temperature;BMP_pressure;BME280_temperature;BME280_humidity;BME280_pressure;Samples;Min_cycle;Max_cycle;Signal;HPM_P1;HPM_P2
2021/07/10 00:01:45;;;;;;;25.00;21.88;;;20.70;99.90;;;;;;4949611;28;20054;-85
2021/07/10 00:04:13;;;;;;;28.23;24.60;;;20.80;99.90;;;;;;4961443;28;20050;-85
2021/07/10 00:06:39;;;;;;;25.95;23.20;;;20.80;99.90;;;;;;4964179;28;20752;-85
2021/07/10 00:09:06;;;;;;;27.63;24.88;;;20.80;99.90;;;;;;4964836;28;20055;-86
2021/07/10 00:11:33;;;;;;;23.70;21.20;;;20.80;99.90;;;;;;4968171;28;20121;-86
2021/07/10 00:14:00;;;;;;;26.02;23.35;;;20.80;99.90;;;;;;4965472;28;20062;-86
2021/07/10 00:16:27;;;;;;;27.42;24.70;;;20.80;99.90;;;;;;4949635;28;20472;-86
2021/07/10 00:18:54;;;;;;;27.35;24.67;;;20.80;99.90;;;;;;4966613;28;20392;-86
2021/07/10 00:21:22;;;;;;;24.48;21.95;;;20.90;99.90;;;;;;4965737;28;20065;-86
2021/07/10 00:23:49;;;;;;;27.58;24.77;;;20.90;99.90;;;;;;4962875;28;20412;-85
2021/07/10 00:26:16;;;;;;;26.38;23.90;;;20.90;99.90;;;;;;4964483;28;20460;-85
2021/07/10 00:28:44;;;;;;;25.60;22.33;;;20.90;99.90;;;;;;4965832;28;20081;-85
2021/07/10 00:31:12;;;;;;;23.73;21.35;;;20.90;99.90;;;;;;4966513;28;20043;-85
2021/07/10 00:33:39;;;;;;;31.92;24.90;;;20.90;99.90;;;;;;4960635;28;20065;-85
2021/07/10 00:36:06;;;;;;;27.45;24.63;;;20.90;99.90;;;;;;4946730;28;20039;-85
2021/07/10 00:38:33;;;;;;;23.77;21.45;;;20.90;99.90;;;;;;4964892;28;20073;-85
2021/07/10 00:41:01;;;;;;;26.42;23.77;;;20.90;99.90;;;;;;4966247;28;20054;-85
2021/07/10 00:43:28;;;;;;;24.42;21.15;;;20.80;99.90;;;;;;4947245;28;20046;-85
2021/07/10 00:45:55;;;;;;;23.98;21.63;;;20.80;99.90;;;;;;4964429;28;20581;-86
2021/07/10 00:48:22;;;;;;;24.20;21.70;;;20.80;99.90;;;;;;4964607;28;20166;-85
2021/07/10 00:50:49;;;;;;;24.63;22.20;;;20.80;99.90;;;;;;4963192;28;20122;-86
2021/07/10 00:53:16;;;;;;;24.42;22.13;;;20.80;99.90;;;;;;4945946;28;20426;-86
2021/07/10 00:55:43;;;;;;;25.13;22.35;;;20.80;99.90;;;;;;4946974;28;20139;-86
2021/07/10 00:58:11;;;;;;;22.55;20.52;;;20.80;99.90;;;;;;4944576;28;20394;-86
2021/07/10 01:00:40;;;;;;;24.88;22.48;;;20.80;99.90;;;;;;4947228;28;20055;-86
2021/07/10 01:03:08;;;;;;;27.77;23.23;;;20.80;99.90;;;;;;4944230;28;20114;-86
2021/07/10 01:05:37;;;;;;;26.00;23.35;;;20.80;99.90;;;;;;4963687;28;20131;-86
2021/07/10 01:08:04;;;;;;;24.60;22.27;;;20.80;99.90;;;;;;4956825;28;20043;-86
2021/07/10 01:10:31;;;;;;;26.88;24.17;;;20.80;99.90;;;;;;4947066;28;20728;-86
2021/07/10 01:12:59;;;;;;;25.45;23.05;;;20.80;99.90;;;;;;4944676;28;20047;-86
2021/07/10 01:15:26;;;;;;;27.15;24.45;;;20.80;99.90;;;;;;4961379;28;20554;-86
2021/07/10 01:17:57;;;;;;;24.55;21.95;;;20.80;99.90;;;;;;4943787;28;21518;-86
2021/07/10 01:20:26;;;;;;;25.05;22.70;;;20.80;99.90;;;;;;4962153;28;20105;-86
2021/07/10 01:22:56;;;;;;;27.13;24.50;;;20.70;99.90;;;;;;4945541;28;20047;-86
2021/07/10 01:25:25;;;;;;;28.73;24.73;;;20.80;99.90;;;;;;4943641;28;20343;-86
2021/07/10 01:27:52;;;;;;;25.98;22.88;;;20.80;99.90;;;;;;4942758;28;20075;-86
2021/07/10 01:30:21;;;;;;;25.80;23.10;;;20.80;99.90;;;;;;4944718;28;20047;-86
2021/07/10 01:32:50;;;;;;;23.42;20.98;;;20.80;99.90;;;;;;4948019;28;20047;-86
2021/07/10 01:35:18;;;;;;;23.73;21.33;;;20.70;99.90;;;;;;4945883;28;20045;-86
2021/07/10 01:37:45;;;;;;;26.90;22.70;;;20.70;99.90;;;;;;4975180;28;20519;-86
2021/07/10 01:40:14;;;;;;;23.88;21.48;;;20.70;99.90;;;;;;4957177;28;20215;-86
2021/07/10 01:42:42;;;;;;;25.67;22.98;;;20.70;99.90;;;;;;4946111;28;20051;-86
2021/07/10 01:45:10;;;;;;;22.67;20.38;;;20.70;99.90;;;;;;4942064;28;20521;-86
2021/07/10 01:47:37;;;;;;;21.63;19.15;;;20.70;99.90;;;;;;4946473;28;20489;-86
2021/07/10 01:50:07;;;;;;;23.17;20.98;;;20.70;99.90;;;;;;4940888;28;20547;-85
2021/07/10 01:52:34;;;;;;;24.90;22.48;;;20.70;99.90;;;;;;4960371;28;20047;-86
2021/07/10 01:55:03;;;;;;;23.20;20.92;;;20.70;99.90;;;;;;4944591;28;20114;-86
2021/07/10 01:57:30;;;;;;;24.88;21.42;;;20.80;99.90;;;;;;4946048;28;20059;-86
2021/07/10 01:59:57;;;;;;;24.20;21.80;;;20.70;99.90;;;;;;4943754;28;20484;-86
2021/07/10 02:02:24;;;;;;;22.65;20.10;;;20.70;99.90;;;;;;4945816;28;20059;-86
2021/07/10 02:04:52;;;;;;;34.35;23.52;;;20.70;99.90;;;;;;4942558;28;20180;-86
2021/07/10 02:07:19;;;;;;;22.40;20.05;;;20.70;99.90;;;;;;4943426;28;20070;-86
2021/07/10 02:09:46;;;;;;;23.80;20.20;;;20.70;99.90;;;;;;4957382;28;20047;-86
2021/07/10 02:12:14;;;;;;;25.77;22.50;;;20.70;99.90;;;;;;4942657;28;20133;-86
2021/07/10 02:14:42;;;;;;;22.55;20.20;;;20.80;99.90;;;;;;4948382;28;20043;-86
2021/07/10 02:17:09;;;;;;;24.40;21.10;;;20.80;99.90;;;;;;4962632;28;20134;-86
2021/07/10 02:19:36;;;;;;;28.75;22.08;;;20.80;99.90;;;;;;4947532;28;20044;-86
2021/07/10 02:22:07;;;;;;;26.88;23.55;;;20.70;99.90;;;;;;4958437;28;20110;-86
2021/07/10 02:24:35;;;;;;;29.65;24.05;;;20.70;99.90;;;;;;4964532;28;20106;-86
2021/07/10 02:27:03;;;;;;;29.95;24.35;;;20.70;99.90;;;;;;4946999;28;20540;-86
2021/07/10 02:29:30;;;;;;;24.58;21.48;;;20.70;99.90;;;;;;4950141;28;20059;-86
2021/07/10 02:31:57;;;;;;;29.50;24.38;;;20.70;99.90;;;;;;4942372;28;20051;-86
2021/07/10 02:34:24;;;;;;;28.33;23.83;;;20.70;99.90;;;;;;4964330;28;20143;-86
2021/07/10 02:36:52;;;;;;;29.10;25.95;;;20.60;99.90;;;;;;4961246;28;21431;-86
2021/07/10 02:39:19;;;;;;;28.77;24.70;;;20.70;99.90;;;;;;4944021;28;20136;-86
2021/07/10 02:41:46;;;;;;;28.15;24.02;;;20.60;99.90;;;;;;4948593;28;20363;-86
2021/07/10 02:44:14;;;;;;;31.45;26.17;;;20.70;99.90;;;;;;4946342;28;20042;-85
2021/07/10 02:46:41;;;;;;;27.25;24.30;;;20.60;99.90;;;;;;4948527;28;20114;-85
2021/07/10 02:49:08;;;;;;;28.08;25.08;;;20.70;99.90;;;;;;4962213;28;20750;-85
2021/07/10 02:51:38;;;;;;;31.40;26.15;;;20.70;99.90;;;;;;4962981;28;20086;-86
2021/07/10 02:54:05;;;;;;;29.23;26.15;;;20.70;99.90;;;;;;4966215;28;20059;-85
2021/07/10 02:56:32;;;;;;;25.98;22.80;;;20.70;99.90;;;;;;4966298;28;20073;-86
2021/07/10 02:58:59;;;;;;;32.47;26.63;;;20.70;99.90;;;;;;4967697;28;20121;-85
2021/07/10 03:01:26;;;;;;;29.60;24.33;;;20.70;99.90;;;;;;4967485;28;20059;-85
2021/07/10 03:03:54;;;;;;;27.50;23.67;;;20.70;99.90;;;;;;4949012;28;20050;-85
2021/07/10 03:06:21;;;;;;;32.47;26.35;;;20.70;99.90;;;;;;4966273;28;20117;-85
2021/07/10 03:08:48;;;;;;;28.08;24.02;;;20.70;99.90;;;;;;4966777;28;20133;-85
2021/07/10 03:11:15;;;;;;;31.13;23.23;;;20.70;99.90;;;;;;4951559;28;20101;-85
2021/07/10 03:13:43;;;;;;;29.52;26.42;;;20.80;99.90;;;;;;4964733;28;20057;-85
2021/07/10 03:16:11;;;;;;;27.38;23.67;;;20.80;99.90;;;;;;4969950;28;20047;-85
2021/07/10 03:18:38;;;;;;;26.85;22.58;;;20.80;99.90;;;;;;4967069;28;20138;-85
2021/07/10 03:21:05;;;;;;;27.30;21.80;;;20.80;99.90;;;;;;4967883;28;20050;-85
2021/07/10 03:23:32;;;;;;;27.40;21.65;;;20.80;99.90;;;;;;4966970;28;20101;-84
2021/07/10 03:25:59;;;;;;;25.38;22.67;;;20.80;99.90;;;;;;4965169;28;20413;-85
2021/07/10 03:28:26;;;;;;;27.63;21.55;;;20.90;99.90;;;;;;4950119;28;20559;-85
2021/07/10 03:30:53;;;;;;;25.38;20.80;;;20.90;99.90;;;;;;4965638;28;20053;-85
2021/07/10 03:33:21;;;;;;;26.70;22.02;;;20.90;99.90;;;;;;4960104;28;20049;-85
2021/07/10 03:35:50;;;;;;;25.98;21.60;;;20.90;99.90;;;;;;4964858;28;20050;-85
2021/07/10 03:38:17;;;;;;;25.95;19.25;;;20.90;99.90;;;;;;4965226;28;20047;-85
2021/07/10 03:40:44;;;;;;;22.08;19.88;;;20.90;99.90;;;;;;4965198;28;20057;-85
2021/07/10 03:43:11;;;;;;;20.23;17.75;;;20.90;99.90;;;;;;4966463;28;20118;-85
2021/07/10 03:45:38;;;;;;;23.63;16.13;;;20.90;99.90;;;;;;4967343;28;20039;-85
2021/07/10 03:48:06;;;;;;;16.33;14.63;;;20.90;99.90;;;;;;4963691;28;20058;-85
2021/07/10 03:50:33;;;;;;;21.63;16.85;;;21.00;99.90;;;;;;4951228;28;20492;-84
2021/07/10 03:53:00;;;;;;;16.63;14.57;;;21.00;99.90;;;;;;4947801;28;20197;-85
2021/07/10 03:55:30;;;;;;;16.63;14.40;;;21.00;99.90;;;;;;4972549;28;20051;-84
2021/07/10 03:57:57;;;;;;;20.55;13.73;;;21.10;99.90;;;;;;4962689;28;20488;-85
2021/07/10 04:00:24;;;;;;;17.85;12.60;;;21.00;99.90;;;;;;4942863;28;20775;-84
2021/07/10 04:02:51;;;;;;;17.15;14.27;;;21.00;99.90;;;;;;4947373;28;20504;-84
2021/07/10 04:05:19;;;;;;;12.38;10.23;;;21.00;99.90;;;;;;4964641;28;20055;-85
2021/07/10 04:07:47;;;;;;;22.67;12.23;;;21.00;99.90;;;;;;4945911;28;20059;-85
2021/07/10 04:10:15;;;;;;;15.38;12.10;;;21.00;99.90;;;;;;4962908;28;20444;-85
2021/07/10 04:12:44;;;;;;;15.13;11.35;;;21.00;99.90;;;;;;4981157;28;20125;-85
2021/07/10 04:15:16;;;;;;;14.57;10.25;;;21.00;99.90;;;;;;4965477;28;20039;-84
2021/07/10 04:17:43;;;;;;;12.98;10.23;;;21.00;99.90;;;;;;4949675;28;20058;-84
2021/07/10 04:20:12;;;;;;;13.18;10.45;;;21.00;99.90;;;;;;4945777;28;20125;-85
2021/07/10 04:22:40;;;;;;;16.35;10.02;;;21.00;99.90;;;;;;4966852;28;20610;-84
2021/07/10 04:25:11;;;;;;;10.52;9.38;;;21.00;99.90;;;;;;4964002;28;20039;-85
2021/07/10 04:27:38;;;;;;;;;;;21.10;99.90;;;;;;4980393;28;20043;-85
2021/07/10 04:30:07;;;;;;;11.13;9.32;;;21.10;99.90;;;;;;4963385;28;20053;-85
2021/07/10 04:32:34;;;;;;;21.08;11.18;;;21.20;99.90;;;;;;4965239;28;20511;-84
2021/07/10 04:35:02;;;;;;;11.55;7.55;;;21.20;99.90;;;;;;4964115;28;20153;-84
2021/07/10 04:37:29;;;;;;;10.13;8.88;;;21.20;99.90;;;;;;4964840;28;20180;-84
2021/07/10 04:39:56;;;;;;;11.70;7.30;;;21.30;99.90;;;;;;4963323;28;20181;-85
2021/07/10 04:42:24;;;;;;;9.75;6.15;;;21.30;99.90;;;;;;4971729;28;20118;-85
2021/07/10 04:44:51;;;;;;;9.60;6.57;;;21.30;99.90;;;;;;4964634;28;20090;-85
2021/07/10 04:47:19;;;;;;;8.70;6.00;;;21.40;99.90;;;;;;4968907;28;20417;-85
2021/07/10 04:49:45;;;;;;;9.15;6.10;;;21.40;99.90;;;;;;4967494;28;20051;-85
2021/07/10 04:52:13;;;;;;;11.45;6.20;;;21.40;99.90;;;;;;4962880;28;20038;-85
2021/07/10 04:54:40;;;;;;;10.57;6.05;;;21.40;99.90;;;;;;4965147;28;20093;-85
2021/07/10 04:57:07;;;;;;;11.10;6.63;;;21.40;99.90;;;;;;4965367;28;20046;-85
2021/07/10 04:59:34;;;;;;;6.47;5.82;;;21.40;99.90;;;;;;4964774;28;20043;-85
2021/07/10 05:02:01;;;;;;;12.27;6.90;;;21.30;99.90;;;;;;4963572;28;20456;-85
2021/07/10 05:04:28;;;;;;;9.32;6.80;;;21.30;99.90;;;;;;4964154;28;20088;-85
2021/07/10 05:06:55;;;;;;;6.90;5.18;;;21.30;99.90;;;;;;4965012;28;20669;-84
2021/07/10 05:09:21;;;;;;;7.50;5.32;;;21.30;99.90;;;;;;4965317;28;20643;-85
2021/07/10 05:11:48;;;;;;;10.80;5.43;;;21.30;99.90;;;;;;4964068;28;20476;-85
2021/07/10 05:14:16;;;;;;;11.10;5.25;;;21.40;99.90;;;;;;4963830;28;20082;-84
2021/07/10 05:16:43;;;;;;;10.73;6.47;;;21.40;99.90;;;;;;4981004;28;20038;-85
2021/07/10 05:19:10;;;;;;;9.18;5.63;;;21.40;99.90;;;;;;4963740;28;20110;-85
2021/07/10 05:21:37;;;;;;;10.38;7.57;;;21.40;99.90;;;;;;4965420;28;20046;-85
2021/07/10 05:24:04;;;;;;;8.70;5.80;;;21.40;99.90;;;;;;4962034;28;20043;-85
2021/07/10 05:26:32;;;;;;;6.93;5.90;;;21.40;99.90;;;;;;4980861;28;20042;-85
2021/07/10 05:28:59;;;;;;;9.93;5.85;;;21.50;99.90;;;;;;4962206;28;20105;-85
2021/07/10 05:31:26;;;;;;;8.50;4.85;;;21.50;99.90;;;;;;4965742;28;20054;-85
2021/07/10 05:33:54;;;;;;;6.55;4.72;;;21.50;99.90;;;;;;4946234;28;20388;-84
2021/07/10 05:36:21;;;;;;;11.02;6.10;;;21.50;99.90;;;;;;4964954;28;20059;-85
2021/07/10 05:38:47;;;;;;;7.20;5.35;;;21.50;99.90;;;;;;4979274;28;20047;-85
2021/07/10 05:41:15;;;;;;;8.15;5.43;;;21.50;99.90;;;;;;4965883;28;20058;-85
2021/07/10 05:43:42;;;;;;;6.90;5.30;;;21.50;99.90;;;;;;4966262;28;20056;-85
2021/07/10 05:46:10;;;;;;;7.28;5.75;;;21.50;99.90;;;;;;4981812;28;20046;-85
2021/07/10 05:48:39;;;;;;;11.77;6.00;;;21.50;99.90;;;;;;4982785;28;20059;-85
2021/07/10 05:51:06;;;;;;;7.70;5.88;;;21.60;99.90;;;;;;4968835;28;20064;-85
2021/07/10 05:53:33;;;;;;;14.23;5.47;;;21.60;99.90;;;;;;4969592;28;20039;-85
2021/07/10 05:56:00;;;;;;;5.63;4.85;;;21.60;99.90;;;;;;4977033;28;20051;-85
2021/07/10 05:58:27;;;;;;;7.63;6.22;;;21.70;99.90;;;;;;4969367;28;20054;-86
2021/07/10 06:00:54;;;;;;;6.18;4.70;;;21.70;99.90;;;;;;4967578;28;20121;-85
2021/07/10 06:03:21;;;;;;;4.88;4.30;;;21.80;99.90;;;;;;4968449;28;20362;-85
2021/07/10 06:05:48;;;;;;;7.75;4.30;;;21.80;99.90;;;;;;4968128;28;20054;-85
2021/07/10 06:08:15;;;;;;;5.80;5.25;;;21.90;99.90;;;;;;4949971;28;20118;-85
2021/07/10 06:10:42;;;;;;;6.95;5.50;;;21.90;99.90;;;;;;4967124;28;20050;-85
2021/07/10 06:13:09;;;;;;;6.85;4.30;;;22.00;99.90;;;;;;4968039;28;20080;-84
2021/07/10 06:15:36;;;;;;;5.07;3.47;;;22.00;99.90;;;;;;4965543;28;20053;-85
2021/07/10 06:18:03;;;;;;;6.22;4.70;;;22.10;99.90;;;;;;4967892;28;20471;-85
2021/07/10 06:20:31;;;;;;;7.20;4.90;;;22.20;99.90;;;;;;4966953;28;20137;-85
2021/07/10 06:22:58;;;;;;;5.10;3.85;;;22.30;99.90;;;;;;4968836;28;20070;-85
2021/07/10 06:25:25;;;;;;;9.73;4.07;;;22.30;99.90;;;;;;4982999;28;20180;-85
2021/07/10 06:27:52;;;;;;;5.55;3.75;;;22.40;99.90;;;;;;4967420;28;20055;-85
2021/07/10 06:30:20;;;;;;;7.18;5.07;;;22.50;99.90;;;;;;4967606;28;20094;-85
2021/07/10 06:32:47;;;;;;;5.22;3.05;;;22.60;99.90;;;;;;4967921;28;20097;-85
2021/07/10 06:35:15;;;;;;;6.15;3.80;;;22.60;99.90;;;;;;4963802;28;20163;-85
2021/07/10 06:37:42;;;;;;;4.68;3.63;;;22.70;99.90;;;;;;4966669;28;20043;-85
2021/07/10 06:40:12;;;;;;;7.60;4.22;;;22.70;99.90;;;;;;4963780;28;20588;-85
2021/07/10 06:42:40;;;;;;;6.05;3.95;;;22.80;99.90;;;;;;4967228;28;20039;-86
2021/07/10 06:45:10;;;;;;;4.45;3.58;;;22.80;99.90;;;;;;4950608;28;20035;-86
2021/07/10 06:47:37;;;;;;;11.65;4.00;;;22.90;99.90;;;;;;4968114;28;20592;-86
2021/07/10 06:50:06;;;;;;;5.35;4.10;;;23.00;99.90;;;;;;4966235;28;20070;-85
2021/07/10 06:52:34;;;;;;;5.43;4.55;;;23.10;99.90;;;;;;4966842;28;20109;-85
2021/07/10 06:55:04;;;;;;;9.18;4.63;;;23.20;99.90;;;;;;4967323;28;20073;-85
2021/07/10 06:57:31;;;;;;;5.15;4.45;;;23.30;99.90;;;;;;4967504;28;20051;-85
2021/07/10 06:59:58;;;;;;;4.50;4.10;;;23.50;99.90;;;;;;4964825;28;20047;-86
2021/07/10 07:02:24;;;;;;;6.03;4.43;;;23.60;99.90;;;;;;4964785;28;20047;-86
2021/07/10 07:04:51;;;;;;;7.03;4.45;;;23.70;99.90;;;;;;4965779;28;20094;-86
2021/07/10 07:07:18;;;;;;;5.68;4.72;;;23.80;99.90;;;;;;4964010;28;20050;-86
2021/07/10 07:09:45;;;;;;;6.95;4.13;;;23.90;99.90;;;;;;4952492;28;20047;-85
2021/07/10 07:12:12;;;;;;;5.10;4.60;;;23.90;99.90;;;;;;4965464;28;20054;-86
2021/07/10 07:14:39;;;;;;;5.15;4.05;;;23.70;99.90;;;;;;4970562;28;20078;-85
2021/07/10 07:17:07;;;;;;;5.53;4.68;;;23.70;99.90;;;;;;4981893;28;20477;-86
2021/07/10 07:19:34;;;;;;;4.82;4.32;;;23.70;99.90;;;;;;4969809;28;20130;-86
2021/07/10 07:22:01;;;;;;;7.55;3.45;;;23.80;99.90;;;;;;4964450;28;20046;-86
2021/07/10 07:24:28;;;;;;;6.60;3.70;;;23.80;99.90;;;;;;4951363;28;20096;-86
2021/07/10 07:26:56;;;;;;;4.68;4.10;;;24.00;99.90;;;;;;4963383;28;20560;-86
2021/07/10 07:29:23;;;;;;;4.15;3.75;;;23.90;99.90;;;;;;4966981;28;20618;-85
2021/07/10 07:31:50;;;;;;;5.18;3.88;;;23.80;99.90;;;;;;4966798;28;20124;-86
2021/07/10 07:34:17;;;;;;;6.15;4.13;;;23.70;99.90;;;;;;4966792;28;20073;-86
2021/07/10 07:36:44;;;;;;;5.13;3.95;;;23.80;99.90;;;;;;4964704;28;20134;-86
2021/07/10 07:39:11;;;;;;;6.07;3.92;;;23.70;99.90;;;;;;4965830;28;20047;-86
2021/07/10 07:41:38;;;;;;;5.75;4.45;;;23.80;99.90;;;;;;4982412;28;20764;-85
2021/07/10 07:44:06;;;;;;;5.85;4.88;;;23.80;99.90;;;;;;4963763;28;20043;-85
2021/07/10 07:46:33;;;;;;;6.70;6.00;;;23.80;99.90;;;;;;4961286;28;20110;-85
2021/07/10 07:49:01;;;;;;;8.32;4.90;;;23.80;99.90;;;;;;4965199;28;20039;-86
2021/07/10 07:51:29;;;;;;;4.45;3.00;;;23.80;99.90;;;;;;4965993;28;20066;-85
2021/07/10 07:53:56;;;;;;;3.85;2.97;;;23.80;99.90;;;;;;4963085;28;20039;-86
2021/07/10 07:56:24;;;;;;;5.78;4.18;;;23.90;99.90;;;;;;4949189;28;20452;-85
2021/07/10 07:58:51;;;;;;;4.65;3.78;;;24.00;99.90;;;;;;4983167;28;20582;-86
2021/07/10 08:01:18;;;;;;;6.15;5.25;;;23.90;99.90;;;;;;4966776;28;20051;-86
2021/07/10 08:03:47;;;;;;;4.53;3.40;;;23.90;99.90;;;;;;4965489;28;20745;-86
2021/07/10 08:06:15;;;;;;;7.47;4.10;;;23.90;99.90;;;;;;4965226;28;20069;-86
2021/07/10 08:08:42;;;;;;;4.40;3.53;;;23.90;99.90;;;;;;4962970;28;20558;-86
2021/07/10 08:11:09;;;;;;;4.47;3.28;;;24.00;99.90;;;;;;4966501;28;20593;-86
2021/07/10 08:13:37;;;;;;;5.22;4.25;;;24.00;99.90;;;;;;4964909;28;20504;-86
2021/07/10 08:16:06;;;;;;;4.15;3.08;;;23.90;99.90;;;;;;4965553;28;20188;-86
2021/07/10 08:18:33;;;;;;;8.35;5.05;;;23.90;99.90;;;;;;4965533;28;20105;-85
2021/07/10 08:21:00;;;;;;;6.07;5.47;;;24.00;99.90;;;;;;4967397;28;20155;-85
2021/07/10 08:23:27;;;;;;;5.95;4.60;;;24.00;99.90;;;;;;4980703;28;20081;-86
2021/07/10 08:25:54;;;;;;;5.70;4.53;;;24.10;99.90;;;;;;4947283;28;20424;-86
2021/07/10 08:28:21;;;;;;;5.72;4.68;;;24.00;99.90;;;;;;4964746;28;20498;-85
2021/07/10 08:30:48;;;;;;;6.55;4.90;;;24.00;99.90;;;;;;4980860;28;20039;-86
2021/07/10 08:33:15;;;;;;;9.35;6.07;;;24.10;99.90;;;;;;4963182;28;20050;-86
2021/07/10 08:35:42;;;;;;;5.82;5.22;;;24.10;99.90;;;;;;4965845;28;20106;-86
2021/07/10 08:38:09;;;;;;;7.03;4.05;;;24.10;99.90;;;;;;4963252;28;20129;-86
2021/07/10 08:40:36;;;;;;;7.18;6.53;;;24.10;99.90;;;;;;4964566;28;20051;-86
2021/07/10 08:43:03;;;;;;;10.82;4.90;;;24.10;99.90;;;;;;4982191;28;20503;-86
2021/07/10 08:45:32;;;;;;;4.68;4.25;;;24.10;99.90;;;;;;4963876;28;20050;-86
2021/07/10 08:48:02;;;;;;;7.95;4.90;;;24.20;99.90;;;;;;4974949;28;20053;-85
2021/07/10 08:50:30;;;;;;;7.78;5.47;;;24.20;99.90;;;;;;4962398;28;20106;-86
2021/07/10 08:52:57;;;;;;;11.63;6.13;;;24.10;99.90;;;;;;4964125;28;20374;-86
2021/07/10 08:55:25;;;;;;;6.78;5.68;;;23.90;99.90;;;;;;4973158;28;20047;-85
2021/07/10 08:57:56;;;;;;;5.65;5.15;;;23.90;99.90;;;;;;4964134;28;20532;-86
2021/07/10 09:00:40;;;;;;;7.97;5.85;;;23.90;99.90;;;;;;4964192;28;20042;-86
2021/07/10 09:03:08;;;;;;;9.50;7.22;;;23.80;99.90;;;;;;4964061;28;20117;-86
2021/07/10 09:05:38;;;;;;;6.57;5.15;;;23.80;99.90;;;;;;4964310;28;20052;-86
2021/07/10 09:08:28;;;;;;;6.40;5.85;;;23.80;99.90;;;;;;4964196;28;20500;-86
2021/07/10 09:10:55;;;;;;;9.85;6.60;;;23.80;99.90;;;;;;4946786;28;20039;-86
2021/07/10 09:13:33;;;;;;;6.32;5.53;;;23.90;99.90;;;;;;4965852;28;20094;-86
2021/07/10 09:16:12;;;;;;;5.97;5.43;;;24.00;99.90;;;;;;4964119;28;20125;-86
2021/07/10 09:18:45;;;;;;;9.10;6.57;;;24.00;99.90;;;;;;4948283;28;20042;-87
2021/07/10 09:21:33;;;;;;;6.63;5.13;;;23.90;99.90;;;;;;4948801;28;20047;-86
2021/07/10 09:24:01;;;;;;;10.13;6.00;;;23.90;99.90;;;;;;4945158;28;20047;-86
2021/07/10 09:26:28;;;;;;;9.25;6.55;;;23.70;99.90;;;;;;4948787;28;20097;-87
2021/07/10 09:29:08;;;;;;;6.78;5.70;;;23.70;99.90;;;;;;4980247;28;20871;-86
2021/07/10 09:31:38;;;;;;;18.13;6.18;;;23.80;99.90;;;;;;4964563;28;20059;-86
2021/07/10 09:34:07;;;;;;;9.30;5.63;;;24.00;99.90;;;;;;4964735;28;20536;-86
2021/07/10 09:36:35;;;;;;;8.73;5.00;;;24.10;99.90;;;;;;4963637;28;20042;-86
2021/07/10 09:39:09;;;;;;;6.93;5.63;;;24.20;99.90;;;;;;4947945;28;20043;-86
2021/07/10 09:41:37;;;;;;;5.45;4.95;;;24.40;99.90;;;;;;4962049;28;20061;-85
2021/07/10 09:44:15;;;;;;;6.88;6.25;;;24.60;99.90;;;;;;4962203;28;20125;-86
2021/07/10 09:46:43;;;;;;;15.25;6.05;;;24.40;99.90;;;;;;4962676;28;20042;-86
2021/07/10 09:49:17;;;;;;;6.63;6.03;;;24.50;99.90;;;;;;4950695;28;20042;-85
2021/07/10 09:51:45;;;;;;;6.45;5.78;;;24.40;99.90;;;;;;4962479;28;20066;-86
2021/07/10 09:54:12;;;;;;;6.00;5.35;;;24.30;99.90;;;;;;4973724;28;20759;-86
2021/07/10 09:56:59;;;;;;;8.63;6.53;;;24.40;99.90;;;;;;4961792;28;20050;-86
2021/07/10 09:59:26;;;;;;;5.95;5.32;;;24.70;99.90;;;;;;4969772;28;20061;-86
2021/07/10 10:01:54;;;;;;;6.10;5.05;;;24.80;99.90;;;;;;4963796;28;20444;-86
2021/07/10 10:04:27;;;;;;;5.95;5.43;;;24.90;99.90;;;;;;4964225;28;20061;-86
2021/07/10 10:06:56;;;;;;;8.63;5.32;;;24.80;99.90;;;;;;4946498;28;20204;-87
2021/07/10 10:09:25;;;;;;;10.05;6.68;;;24.80;99.90;;;;;;4966807;28;20046;-86
2021/07/10 10:12:02;;;;;;;6.57;5.93;;;24.80;99.90;;;;;;4962176;28;20035;-86
2021/07/10 10:14:31;;;;;;;6.50;6.00;;;25.10;99.90;;;;;;4948176;28;20559;-86
2021/07/10 10:16:59;;;;;;;9.70;6.37;;;25.00;99.90;;;;;;4964255;28;20047;-86
2021/07/10 10:19:29;;;;;;;7.07;6.43;;;25.10;99.90;;;;;;4981165;28;20297;-86
2021/07/10 10:21:58;;;;;;;6.25;5.75;;;25.10;99.90;;;;;;4975041;28;20051;-86
2021/07/10 10:24:27;;;;;;;7.28;4.82;;;25.30;99.90;;;;;;4964702;28;20657;-87
2021/07/10 10:26:54;;;;;;;6.10;5.60;;;25.60;99.90;;;;;;4965928;28;20043;-86
2021/07/10 10:29:23;;;;;;;7.25;6.50;;;25.70;99.90;;;;;;4966735;28;20058;-86
2021/07/10 10:31:51;;;;;;;6.40;5.55;;;25.70;99.90;;;;;;4978377;28;20457;-87
2021/07/10 10:34:19;;;;;;;6.57;5.97;;;25.70;99.90;;;;;;4964169;28;20707;-86
2021/07/10 10:36:48;;;;;;;6.47;5.88;;;25.50;99.90;;;;;;4951105;28;20097;-87
2021/07/10 10:39:25;;;;;;;6.68;6.03;;;25.30;99.90;;;;;;4983811;28;20165;-86
2021/07/10 10:41:58;;;;;;;6.60;5.85;;;25.40;99.90;;;;;;4965600;28;20396;-87
2021/07/10 10:44:35;;;;;;;6.45;5.85;;;25.40;99.90;;;;;;4980582;28;20047;-87
2021/07/10 10:47:03;;;;;;;7.85;6.05;;;25.50;99.90;;;;;;4970460;28;20055;-86
2021/07/10 10:49:39;;;;;;;6.10;5.60;;;25.50;99.90;;;;;;4966883;28;20073;-87
2021/07/10 10:52:34;;;;;;;6.53;5.93;;;25.30;99.90;;;;;;4966542;28;20076;-86
2021/07/10 10:55:08;;;;;;;7.13;6.53;;;25.20;99.90;;;;;;4965796;28;20488;-87
2021/07/10 10:57:53;;;;;;;6.25;5.47;;;25.50;99.90;;;;;;4969824;28;20051;-86
2021/07/10 11:00:23;;;;;;;6.53;5.93;;;26.00;99.90;;;;;;4964863;28;20043;-87
2021/07/10 11:02:55;;;;;;;6.85;6.15;;;26.10;99.90;;;;;;4966508;28;20035;-86
2021/07/10 11:05:31;;;;;;;7.22;6.05;;;26.30;99.90;;;;;;4967847;28;20050;-87
2021/07/10 11:08:23;;;;;;;5.75;5.25;;;26.40;99.90;;;;;;4962802;28;20039;-86
2021/07/10 11:10:58;;;;;;;5.95;5.45;;;26.30;99.90;;;;;;4968866;28;20074;-86
2021/07/10 11:13:32;;;;;;;7.47;6.72;;;26.20;99.90;;;;;;4966041;28;20198;-86
2021/07/10 11:16:16;;;;;;;6.85;6.35;;;26.20;99.90;;;;;;4981468;28;20050;-85
2021/07/10 11:18:55;;;;;;;9.73;6.97;;;26.10;99.90;;;;;;4965436;28;20051;-86
2021/07/10 11:21:35;;;;;;;7.28;6.28;;;26.00;99.90;;;;;;4963184;28;20575;-87
2021/07/10 11:24:20;;;;;;;5.53;5.03;;;25.90;99.90;;;;;;4962762;28;20045;-87
2021/07/10 11:26:53;;;;;;;6.78;6.18;;;25.80;99.90;;;;;;4967149;28;20085;-86
2021/07/10 11:29:28;;;;;;;7.35;6.25;;;25.50;99.90;;;;;;4969073;28;20046;-86
2021/07/10 11:32:16;;;;;;;7.20;6.60;;;25.40;99.90;;;;;;4962340;28;20047;-86
2021/07/10 11:34:59;;;;;;;8.00;6.63;;;25.60;99.90;;;;;;4967936;28;20046;-86
2021/07/10 11:37:39;;;;;;;9.10;6.68;;;25.70;99.90;;;;;;4966472;28;20046;-86
2021/07/10 11:40:08;;;;;;;7.35;6.15;;;25.70;99.90;;;;;;4981360;28;20054;-87
2021/07/10 11:42:47;;;;;;;6.65;6.00;;;25.80;99.90;;;;;;4978626;28;20151;-86
2021/07/10 11:45:24;;;;;;;7.33;5.63;;;25.70;99.90;;;;;;4966398;28;20137;-86
2021/07/10 11:48:15;;;;;;;6.10;5.60;;;25.80;99.90;;;;;;4965260;28;20051;-86
2021/07/10 11:50:42;;;;;;;7.72;6.10;;;25.90;99.90;;;;;;4965152;28;20059;-87
2021/07/10 11:53:12;;;;;;;5.72;5.22;;;26.10;99.90;;;;;;4966835;28;20082;-86
2021/07/10 11:55:45;;;;;;;10.55;8.13;;;26.30;99.90;;;;;;4964651;28;20058;-86
2021/07/10 11:58:17;;;;;;;7.47;5.78;;;26.60;99.90;;;;;;4966068;28;20050;-86
2021/07/10 12:00:45;;;;;;;7.20;6.28;;;26.60;99.90;;;;;;4966474;28;20051;-87
2021/07/10 12:03:23;;;;;;;8.02;7.32;;;26.60;99.90;;;;;;4983135;28;20043;-86
2021/07/10 12:05:53;;;;;;;6.85;5.93;;;26.40;99.90;;;;;;4964220;28;20370;-87
2021/07/10 12:08:20;;;;;;;8.67;5.30;;;26.10;99.90;;;;;;4963549;28;20050;-86
2021/07/10 12:10:49;;;;;;;8.15;6.78;;;25.80;99.90;;;;;;4982826;28;20047;-85
2021/07/10 12:13:22;;;;;;;9.57;7.03;;;25.80;99.90;;;;;;4966468;28;20644;-86
2021/07/10 12:16:04;;;;;;;7.28;6.57;;;25.80;99.90;;;;;;4980643;28;20045;-86
2021/07/10 12:18:35;;;;;;;8.27;6.65;;;25.80;99.90;;;;;;4945194;28;20042;-86
2021/07/10 12:21:09;;;;;;;7.20;6.65;;;26.00;99.90;;;;;;4966537;28;20050;-86
2021/07/10 12:23:39;;;;;;;6.20;5.60;;;26.40;99.90;;;;;;4964704;28;20489;-86
2021/07/10 12:26:12;;;;;;;6.50;5.90;;;26.50;99.90;;;;;;4964624;28;20125;-86
2021/07/10 12:28:45;;;;;;;7.10;5.97;;;26.60;99.90;;;;;;4965863;28;20158;-85
2021/07/10 12:31:19;;;;;;;7.07;6.38;;;26.70;99.90;;;;;;4966939;28;20513;-87
2021/07/10 12:33:55;;;;;;;7.97;6.28;;;26.80;99.90;;;;;;4947729;28;20046;-86
2021/07/10 12:36:29;;;;;;;7.45;6.75;;;26.60;99.90;;;;;;4962375;28;20363;-86
2021/07/10 12:39:00;;;;;;;6.70;6.10;;;26.30;99.90;;;;;;4980368;28;20050;-87
2021/07/10 12:41:35;;;;;;;6.30;5.65;;;25.90;99.90;;;;;;4978949;28;20041;-86
2021/07/10 12:44:06;;;;;;;8.45;6.43;;;25.80;99.90;;;;;;4963027;28;20049;-86
2021/07/10 12:46:52;;;;;;;7.55;6.85;;;25.90;99.90;;;;;;4963779;28;20042;-86
2021/07/10 12:49:20;;;;;;;6.65;6.05;;;26.10;99.90;;;;;;4966620;28;20047;-86